Aviation Digital Data Service (ADDS)

Output produced by METARs form (0823 UTC 02 October 2014)
found at http://aviationweather.gov/adds/metars/
 
KBPT 020753Z 18005KT 7SM CLR 27/25 A2986 RMK AO2 SLP110 T02670250